createdAt,value
2023-04-29T00:00:49.667Z,12.30
2023-04-29T00:03:17.483Z,12.30
2023-04-29T00:05:44.846Z,12.30
2023-04-29T00:08:11.853Z,12.30
2023-04-29T00:10:39.624Z,12.30
2023-04-29T00:13:07.411Z,12.30
2023-04-29T00:15:34.360Z,12.30
2023-04-29T00:18:01.643Z,12.30
2023-04-29T00:20:28.551Z,12.30
2023-04-29T00:22:55.344Z,12.30
2023-04-29T00:25:22.184Z,12.30
2023-04-29T00:27:48.959Z,12.30
2023-04-29T00:30:15.810Z,12.30
2023-04-29T00:32:43.801Z,12.30
2023-04-29T00:35:11.639Z,12.30
2023-04-29T00:37:38.965Z,12.30
2023-04-29T00:40:07.414Z,12.30
2023-04-29T00:42:34.488Z,12.40
2023-04-29T00:45:01.290Z,12.30
2023-04-29T00:47:28.524Z,12.30
2023-04-29T00:49:55.427Z,12.20
2023-04-29T00:52:23.175Z,12.20
2023-04-29T00:54:52.381Z,12.20
2023-04-29T00:57:20.493Z,12.20
2023-04-29T00:59:48.654Z,12.20
2023-04-29T01:02:17.380Z,12.20
2023-04-29T01:04:44.200Z,12.20
2023-04-29T01:07:34.224Z,12.30
2023-04-29T01:10:10.763Z,12.30
2023-04-29T01:12:59.766Z,12.30
2023-04-29T01:16:01.157Z,12.30
2023-04-29T01:18:33.445Z,12.30
2023-04-29T01:21:01.716Z,12.30
2023-04-29T01:23:29.686Z,12.30
2023-04-29T01:25:57.913Z,12.30
2023-04-29T01:28:52.191Z,12.30
2023-04-29T01:31:32.745Z,12.40
2023-04-29T01:34:19.837Z,12.40
2023-04-29T01:36:55.852Z,12.40
2023-04-29T01:39:38.165Z,12.30
2023-04-29T01:42:26.790Z,12.30
2023-04-29T01:44:57.070Z,12.30
2023-04-29T01:47:26.055Z,12.30
2023-04-29T01:49:55.055Z,12.30
2023-04-29T01:52:23.194Z,12.40
2023-04-29T01:54:57.373Z,12.40
2023-04-29T01:57:26.398Z,12.40
2023-04-29T01:59:58.824Z,12.40
2023-04-29T02:02:41.886Z,12.40
2023-04-29T02:05:22.030Z,12.40
2023-04-29T02:07:57.233Z,12.40
2023-04-29T02:10:24.551Z,12.40
2023-04-29T02:12:59.725Z,12.50
2023-04-29T02:15:27.944Z,12.40
2023-04-29T02:17:55.706Z,12.50
2023-04-29T02:20:22.563Z,12.50
2023-04-29T02:22:49.612Z,12.50
2023-04-29T02:25:16.595Z,12.50
2023-04-29T02:27:43.481Z,12.50
2023-04-29T02:30:10.764Z,12.50
2023-04-29T02:32:39.325Z,12.50
2023-04-29T02:35:07.414Z,12.50
2023-04-29T02:37:34.783Z,12.50
2023-04-29T02:40:03.480Z,12.50
2023-04-29T02:42:30.867Z,12.60
2023-04-29T02:44:57.892Z,12.50
2023-04-29T02:47:25.045Z,12.50
2023-04-29T02:49:52.520Z,12.60
2023-04-29T02:52:19.554Z,12.60
2023-04-29T02:54:47.313Z,12.60
2023-04-29T02:57:14.311Z,12.60
2023-04-29T02:59:41.103Z,12.60
2023-04-29T03:02:07.982Z,12.60
2023-04-29T03:04:34.994Z,12.70
2023-04-29T03:07:01.961Z,12.60
2023-04-29T03:09:28.855Z,12.70
2023-04-29T03:11:56.108Z,12.70
2023-04-29T03:14:23.053Z,12.70
2023-04-29T03:16:50.164Z,12.70
2023-04-29T03:19:17.614Z,12.70
2023-04-29T03:21:45.276Z,12.70
2023-04-29T03:24:13.024Z,12.70
2023-04-29T03:26:40.445Z,12.70
2023-04-29T03:29:07.338Z,12.70
2023-04-29T03:31:34.474Z,12.70
2023-04-29T03:34:01.401Z,12.70
2023-04-29T03:36:28.871Z,12.70
2023-04-29T03:39:13.341Z,12.70
2023-04-29T03:41:40.244Z,12.70
2023-04-29T03:44:09.185Z,12.70
2023-04-29T03:46:36.322Z,12.70
2023-04-29T03:49:03.253Z,12.70
2023-04-29T03:51:30.324Z,12.70
2023-04-29T03:54:17.516Z,12.70
2023-04-29T03:56:44.789Z,12.70
2023-04-29T03:59:12.757Z,12.70
2023-04-29T04:01:41.211Z,12.70
2023-04-29T04:04:08.424Z,12.70
2023-04-29T04:06:39.239Z,12.70
2023-04-29T04:09:06.180Z,12.70
2023-04-29T04:11:33.903Z,12.70
2023-04-29T04:14:03.290Z,12.70
2023-04-29T04:16:30.639Z,12.70
2023-04-29T04:18:57.713Z,12.70
2023-04-29T04:21:25.249Z,12.70
2023-04-29T04:23:59.399Z,12.70
2023-04-29T04:26:28.320Z,12.70
2023-04-29T04:29:15.699Z,12.70
2023-04-29T04:31:52.509Z,12.70
2023-04-29T04:34:20.375Z,12.70
2023-04-29T04:36:49.786Z,12.70
2023-04-29T04:39:16.579Z,12.80
2023-04-29T04:41:43.438Z,12.70
2023-04-29T04:44:10.916Z,12.80
2023-04-29T04:46:50.667Z,12.80
2023-04-29T04:49:30.004Z,12.80
2023-04-29T04:51:57.028Z,12.80
2023-04-29T04:54:24.607Z,12.80
2023-04-29T04:57:00.020Z,12.80
2023-04-29T04:59:26.933Z,12.80
2023-04-29T05:01:53.741Z,12.80
2023-04-29T05:04:20.731Z,12.90
2023-04-29T05:06:48.038Z,12.90
2023-04-29T05:09:15.213Z,12.90
2023-04-29T05:11:42.313Z,12.90
2023-04-29T05:14:15.206Z,12.90
2023-04-29T05:16:43.688Z,12.90
2023-04-29T05:19:10.946Z,13.00
2023-04-29T05:21:39.850Z,13.00
2023-04-29T05:24:08.972Z,13.00
2023-04-29T05:26:36.094Z,13.00
2023-04-29T05:29:03.003Z,13.00
2023-04-29T05:31:36.051Z,13.10
2023-04-29T05:34:05.061Z,13.10
2023-04-29T05:36:31.942Z,13.10
2023-04-29T05:38:59.019Z,13.20
2023-04-29T05:41:26.885Z,13.20
2023-04-29T05:44:11.356Z,13.20
2023-04-29T05:46:38.263Z,13.30
2023-04-29T05:49:05.213Z,13.30
2023-04-29T05:51:32.180Z,13.30
2023-04-29T05:54:01.868Z,13.30
2023-04-29T05:56:31.281Z,13.30
2023-04-29T05:58:58.522Z,13.30
2023-04-29T06:01:25.413Z,13.30
2023-04-29T06:03:52.504Z,13.40
2023-04-29T06:06:58.262Z,13.40
2023-04-29T06:09:46.956Z,13.40
2023-04-29T06:12:13.971Z,13.40
2023-04-29T06:14:43.348Z,13.40
2023-04-29T06:17:11.116Z,13.50
2023-04-29T06:19:37.970Z,13.50
2023-04-29T06:22:04.901Z,13.50
2023-04-29T06:24:32.491Z,13.60
2023-04-29T06:26:59.375Z,13.60
2023-04-29T06:29:26.872Z,13.70
2023-04-29T06:31:54.220Z,13.70
2023-04-29T06:34:21.142Z,13.80
2023-04-29T06:37:08.014Z,13.80
2023-04-29T06:39:53.851Z,13.80
2023-04-29T06:42:43.789Z,13.80
2023-04-29T06:45:46.929Z,13.90
2023-04-29T06:48:37.059Z,13.90
2023-04-29T06:51:04.648Z,13.90
2023-04-29T06:53:35.978Z,14.00
2023-04-29T06:56:02.994Z,14.00
2023-04-29T06:58:29.751Z,14.00
2023-04-29T07:00:57.093Z,14.00
2023-04-29T07:03:24.077Z,14.10
2023-04-29T07:05:50.983Z,14.10
2023-04-29T07:08:17.900Z,14.20
2023-04-29T07:10:57.253Z,14.20
2023-04-29T07:13:27.394Z,14.20
2023-04-29T07:15:54.324Z,14.30
2023-04-29T07:18:21.449Z,14.30
2023-04-29T07:20:48.452Z,14.30
2023-04-29T07:23:15.808Z,14.40
2023-04-29T07:25:42.669Z,14.40
2023-04-29T07:28:09.987Z,14.50
2023-04-29T07:30:37.511Z,14.60
2023-04-29T07:33:04.936Z,14.80
2023-04-29T07:35:32.091Z,14.90
2023-04-29T07:37:58.988Z,15.00
2023-04-29T07:40:26.256Z,15.10
2023-04-29T07:42:56.629Z,15.00
2023-04-29T07:45:23.490Z,15.00
2023-04-29T07:47:50.489Z,15.00
2023-04-29T07:50:17.455Z,15.10
2023-04-29T07:52:44.407Z,15.10
2023-04-29T07:55:11.323Z,15.20
2023-04-29T07:57:38.770Z,15.30
2023-04-29T08:00:07.137Z,15.30
2023-04-29T08:02:42.488Z,15.30
2023-04-29T08:05:11.138Z,15.40
2023-04-29T08:07:38.919Z,15.50
2023-04-29T08:10:06.350Z,15.60
2023-04-29T08:12:34.158Z,15.60
2023-04-29T08:15:01.159Z,15.60
2023-04-29T08:17:28.029Z,15.60
2023-04-29T08:19:54.836Z,15.60
2023-04-29T08:22:21.655Z,15.70
2023-04-29T08:24:48.615Z,15.70
2023-04-29T08:27:15.535Z,15.70
2023-04-29T08:29:43.104Z,15.70
2023-04-29T08:32:09.920Z,15.70
2023-04-29T08:34:37.626Z,15.60
2023-04-29T08:37:04.414Z,15.60
2023-04-29T08:39:31.511Z,15.60
2023-04-29T08:41:59.351Z,15.70
2023-04-29T08:44:27.436Z,15.70
2023-04-29T08:46:57.316Z,15.80
2023-04-29T08:49:24.212Z,15.90
2023-04-29T08:51:53.657Z,16.00
2023-04-29T08:54:20.562Z,16.10
2023-04-29T08:56:47.651Z,16.20
2023-04-29T08:59:16.392Z,16.30
2023-04-29T09:01:44.505Z,16.30
2023-04-29T09:04:48.042Z,16.40
2023-04-29T09:07:16.794Z,16.50
2023-04-29T09:09:43.992Z,16.60
2023-04-29T09:12:10.795Z,16.60
2023-04-29T09:14:37.685Z,16.60
2023-04-29T09:17:04.628Z,16.60
2023-04-29T09:19:33.419Z,16.70
2023-04-29T09:22:01.610Z,16.70
2023-04-29T09:24:30.421Z,16.70
2023-04-29T09:26:58.753Z,16.80
2023-04-29T09:29:25.859Z,16.80
2023-04-29T09:31:57.692Z,16.80
2023-04-29T09:34:39.645Z,16.80
2023-04-29T09:37:28.021Z,16.70
2023-04-29T09:39:55.245Z,16.60
2023-04-29T09:42:22.136Z,16.60
2023-04-29T09:44:48.919Z,16.70
2023-04-29T09:47:15.801Z,16.80
2023-04-29T09:49:45.962Z,16.80
2023-04-29T09:52:16.406Z,16.90
2023-04-29T09:54:44.504Z,16.90
2023-04-29T09:57:12.953Z,16.90
2023-04-29T09:59:41.141Z,16.80
2023-04-29T10:02:20.889Z,16.80
2023-04-29T10:04:57.794Z,16.80
2023-04-29T10:07:28.046Z,16.80
2023-04-29T10:09:56.052Z,16.90
2023-04-29T10:12:23.972Z,17.00
2023-04-29T10:15:04.510Z,17.10
2023-04-29T10:17:49.477Z,17.20
2023-04-29T10:20:23.251Z,17.30
2023-04-29T10:22:54.898Z,17.30
2023-04-29T10:25:23.255Z,17.40
2023-04-29T10:27:53.402Z,17.40
2023-04-29T10:30:21.801Z,17.50
2023-04-29T10:32:52.469Z,17.50
2023-04-29T10:35:23.238Z,17.60
2023-04-29T10:37:50.981Z,17.60
2023-04-29T10:40:49.424Z,17.60
2023-04-29T10:43:16.573Z,17.60
2023-04-29T10:45:43.531Z,17.60
2023-04-29T10:48:13.006Z,17.70
2023-04-29T10:50:49.248Z,17.70
2023-04-29T10:53:17.514Z,17.80
2023-04-29T10:55:48.789Z,18.00
2023-04-29T10:58:37.568Z,18.10
2023-04-29T11:01:05.567Z,18.30
2023-04-29T11:03:49.369Z,18.40
2023-04-29T11:06:16.629Z,18.50
2023-04-29T11:08:43.606Z,18.60
2023-04-29T11:11:10.508Z,18.60
2023-04-29T11:13:41.064Z,18.50
2023-04-29T11:16:10.077Z,18.50
2023-04-29T11:19:09.115Z,18.40
2023-04-29T11:21:36.911Z,18.30
2023-04-29T11:24:06.311Z,18.30
2023-04-29T11:26:35.589Z,18.30
2023-04-29T11:29:02.640Z,18.40
2023-04-29T11:31:33.214Z,18.50
2023-04-29T11:34:00.666Z,18.60
2023-04-29T11:36:28.374Z,18.60
2023-04-29T11:38:56.026Z,18.50
2023-04-29T11:41:23.517Z,18.50
2023-04-29T11:43:58.545Z,18.50
2023-04-29T11:46:28.841Z,18.50
2023-04-29T11:48:59.168Z,18.50
2023-04-29T11:51:26.891Z,18.70
2023-04-29T11:53:53.948Z,18.80
2023-04-29T11:56:25.527Z,19.00
2023-04-29T11:58:56.948Z,19.20
2023-04-29T12:01:25.158Z,19.50
2023-04-29T12:03:52.273Z,19.70
2023-04-29T12:06:19.263Z,19.80
2023-04-29T12:08:47.508Z,19.90
2023-04-29T12:11:14.500Z,19.90
2023-04-29T12:13:41.832Z,20.10
2023-04-29T12:16:09.154Z,20.30
2023-04-29T12:18:36.107Z,20.50
2023-04-29T12:21:03.052Z,20.60
2023-04-29T12:23:30.076Z,20.60
2023-04-29T12:25:59.262Z,20.70
2023-04-29T12:28:27.211Z,20.70
2023-04-29T12:30:54.864Z,20.90
2023-04-29T12:33:25.628Z,21.00
2023-04-29T12:35:54.800Z,21.10
2023-04-29T12:38:29.014Z,21.20
2023-04-29T12:40:59.517Z,21.20
2023-04-29T12:43:30.644Z,21.20
2023-04-29T12:46:08.752Z,21.30
2023-04-29T12:48:41.767Z,21.20
2023-04-29T12:51:10.466Z,21.20
2023-04-29T12:53:37.824Z,21.20
2023-04-29T12:56:06.299Z,21.00
2023-04-29T12:58:35.105Z,21.00
2023-04-29T13:01:02.205Z,20.90
2023-04-29T13:03:29.289Z,21.00
2023-04-29T13:05:57.159Z,21.20
2023-04-29T13:08:24.017Z,21.40
2023-04-29T13:10:51.035Z,21.40
2023-04-29T13:13:17.871Z,21.50
2023-04-29T13:15:44.863Z,21.60
2023-04-29T13:18:11.726Z,21.60
2023-04-29T13:20:42.259Z,21.60
2023-04-29T13:23:12.006Z,21.60
2023-04-29T13:25:38.870Z,21.70
2023-04-29T13:28:05.867Z,21.80
2023-04-29T13:30:33.095Z,21.80
2023-04-29T13:33:09.268Z,22.00
2023-04-29T13:35:38.322Z,22.10
2023-04-29T13:38:05.316Z,22.20
2023-04-29T13:40:37.361Z,22.40
2023-04-29T13:45:39.928Z,22.80
2023-04-29T13:48:25.973Z,23.00
2023-04-29T13:53:52.841Z,23.30
2023-04-29T13:59:30.470Z,23.10
2023-04-29T14:04:00.059Z,22.70
2023-04-29T14:06:28.419Z,22.70
2023-04-29T14:08:55.390Z,22.90
2023-04-29T14:11:22.240Z,23.10
2023-04-29T14:13:49.096Z,23.40
2023-04-29T14:16:16.978Z,23.80
2023-04-29T14:18:43.908Z,24.00
2023-04-29T14:21:11.240Z,24.20
2023-04-29T14:23:38.366Z,24.40
2023-04-29T14:26:23.003Z,24.40
2023-04-29T14:28:57.681Z,24.40
2023-04-29T14:31:25.788Z,24.50
2023-04-29T14:33:52.677Z,24.70
2023-04-29T14:36:19.673Z,24.80
2023-04-29T14:38:46.614Z,25.00
2023-04-29T14:41:13.486Z,25.30
2023-04-29T14:43:41.652Z,25.50
2023-04-29T14:46:09.013Z,25.70
2023-04-29T14:48:36.150Z,25.90
2023-04-29T14:51:03.117Z,26.00
2023-04-29T14:53:30.018Z,26.10
2023-04-29T14:55:56.982Z,26.20
2023-04-29T14:58:23.992Z,26.30
2023-04-29T15:00:51.216Z,26.50
2023-04-29T15:03:22.575Z,26.80
2023-04-29T15:05:50.929Z,26.90
2023-04-29T15:08:18.754Z,27.00
2023-04-29T15:10:47.677Z,26.90
2023-04-29T15:13:15.191Z,26.90
2023-04-29T15:15:42.303Z,26.80
2023-04-29T15:18:09.480Z,26.90
2023-04-29T15:20:37.536Z,27.10
2023-04-29T15:23:05.381Z,27.30
2023-04-29T15:25:36.253Z,27.50
2023-04-29T15:28:04.719Z,27.60
2023-04-29T15:30:32.045Z,27.70
2023-04-29T15:32:59.142Z,27.80
2023-04-29T15:35:27.568Z,27.90
2023-04-29T15:37:54.428Z,27.90
2023-04-29T15:40:21.496Z,28.00
2023-04-29T15:42:48.345Z,28.00
2023-04-29T15:45:15.195Z,27.90
2023-04-29T15:47:42.030Z,27.70
2023-04-29T15:50:10.487Z,27.50
2023-04-29T15:52:37.448Z,27.20
2023-04-29T15:55:05.564Z,27.00
2023-04-29T15:57:32.659Z,26.70
2023-04-29T15:59:59.515Z,26.60
2023-04-29T16:02:26.489Z,26.40
2023-04-29T16:04:53.654Z,26.30
2023-04-29T16:07:20.633Z,26.10
2023-04-29T16:09:47.519Z,26.00
2023-04-29T16:12:14.378Z,26.00
2023-04-29T16:14:41.274Z,25.80
2023-04-29T16:17:08.151Z,25.60
2023-04-29T16:19:36.793Z,25.30
2023-04-29T16:22:04.739Z,25.00
2023-04-29T16:24:32.022Z,24.90
2023-04-29T16:26:59.249Z,24.80
2023-04-29T16:29:26.410Z,24.70
2023-04-29T16:31:53.471Z,24.60
2023-04-29T16:34:20.573Z,24.50
2023-04-29T16:36:47.579Z,24.50
2023-04-29T16:39:14.498Z,24.50
2023-04-29T16:41:41.631Z,24.50
2023-04-29T16:44:08.957Z,24.40
2023-04-29T16:46:36.106Z,24.30
2023-04-29T16:49:03.244Z,24.10
2023-04-29T16:51:30.191Z,23.90
2023-04-29T16:53:57.136Z,23.70
2023-04-29T16:56:24.003Z,23.60
2023-04-29T16:58:51.159Z,23.60
2023-04-29T17:01:19.782Z,23.60
2023-04-29T17:03:50.283Z,23.70
2023-04-29T17:06:17.394Z,23.80
2023-04-29T17:08:45.450Z,23.90
2023-04-29T17:11:12.459Z,23.90
2023-04-29T17:13:39.569Z,23.90
2023-04-29T17:16:07.137Z,23.90
2023-04-29T17:18:34.290Z,23.90
2023-04-29T17:21:01.176Z,23.80
2023-04-29T17:23:28.079Z,23.80
2023-04-29T17:25:55.446Z,23.80
2023-04-29T17:28:23.379Z,23.90
2023-04-29T17:30:51.074Z,24.00
2023-04-29T17:33:18.148Z,24.10
2023-04-29T17:35:46.238Z,24.00
2023-04-29T17:38:13.379Z,23.90
2023-04-29T17:40:40.241Z,23.80
2023-04-29T17:43:07.098Z,23.60
2023-04-29T17:45:34.014Z,23.50
2023-04-29T17:48:01.003Z,23.40
2023-04-29T17:50:27.958Z,23.30
2023-04-29T17:52:54.836Z,23.20
2023-04-29T17:55:21.793Z,23.10
2023-04-29T17:57:48.698Z,23.00
2023-04-29T18:00:15.818Z,23.00
2023-04-29T18:02:42.785Z,23.00
2023-04-29T18:05:09.865Z,23.00
2023-04-29T18:07:36.684Z,23.20
2023-04-29T18:10:03.898Z,23.50
2023-04-29T18:12:30.726Z,23.80
2023-04-29T18:14:57.530Z,24.10
2023-04-29T18:17:24.449Z,24.20
2023-04-29T18:19:51.335Z,24.30
2023-04-29T18:22:18.307Z,24.30
2023-04-29T18:24:46.276Z,24.30
2023-04-29T18:27:13.116Z,24.10
2023-04-29T18:29:39.967Z,23.90
2023-04-29T18:32:08.165Z,23.60
2023-04-29T18:34:35.665Z,23.40
2023-04-29T18:37:02.457Z,23.20
2023-04-29T18:39:29.252Z,23.00
2023-04-29T18:41:56.059Z,22.90
2023-04-29T18:44:22.942Z,22.70
2023-04-29T18:46:49.860Z,22.50
2023-04-29T18:49:17.850Z,22.30
2023-04-29T18:51:47.701Z,22.10
2023-04-29T18:54:16.524Z,22.00
2023-04-29T18:56:48.141Z,21.80
2023-04-29T18:59:21.294Z,21.50
2023-04-29T19:01:48.960Z,21.30
2023-04-29T19:04:16.446Z,21.00
2023-04-29T19:06:43.733Z,20.80
2023-04-29T19:09:14.369Z,20.60
2023-04-29T19:11:41.249Z,20.40
2023-04-29T19:14:08.141Z,20.20
2023-04-29T19:16:37.082Z,20.00
2023-04-29T19:19:04.508Z,19.70
2023-04-29T19:21:35.832Z,19.50
2023-04-29T19:24:02.744Z,19.30
2023-04-29T19:26:31.067Z,19.10
2023-04-29T19:28:59.709Z,18.90
2023-04-29T19:31:26.739Z,18.70
2023-04-29T19:33:53.699Z,18.50
2023-04-29T19:36:21.880Z,18.40
2023-04-29T19:38:49.189Z,18.20
2023-04-29T19:41:16.730Z,18.10
2023-04-29T19:43:43.547Z,18.00
2023-04-29T19:46:13.859Z,17.90
2023-04-29T19:48:41.070Z,17.70
2023-04-29T19:51:08.491Z,17.60
2023-04-29T19:53:38.799Z,17.40
2023-04-29T19:56:05.792Z,17.30
2023-04-29T19:58:33.053Z,17.20
2023-04-29T20:00:59.978Z,17.00
2023-04-29T20:03:27.149Z,16.90
2023-04-29T20:05:54.813Z,16.90
2023-04-29T20:08:21.830Z,16.80
2023-04-29T20:10:48.702Z,16.70
2023-04-29T20:13:15.740Z,16.60
2023-04-29T20:15:42.603Z,16.50
2023-04-29T20:18:09.595Z,16.40
2023-04-29T20:20:36.566Z,16.40
2023-04-29T20:23:03.402Z,16.30
2023-04-29T20:25:30.256Z,16.20
2023-04-29T20:28:00.380Z,16.20
2023-04-29T20:30:27.349Z,16.20
2023-04-29T20:32:54.318Z,16.10
2023-04-29T20:35:21.292Z,16.10
2023-04-29T20:37:48.328Z,16.10
2023-04-29T20:40:15.314Z,16.10
2023-04-29T20:42:42.223Z,16.00
2023-04-29T20:45:09.743Z,16.00
2023-04-29T20:47:36.700Z,16.00
2023-04-29T20:50:04.802Z,16.00
2023-04-29T20:52:31.678Z,15.90
2023-04-29T20:54:58.733Z,15.90
2023-04-29T20:57:25.818Z,15.90
2023-04-29T20:59:52.897Z,15.80
2023-04-29T21:02:20.411Z,15.70
2023-04-29T21:04:47.382Z,15.70
2023-04-29T21:07:14.466Z,15.70
2023-04-29T21:09:41.325Z,15.60
2023-04-29T21:12:08.324Z,15.60
2023-04-29T21:14:37.340Z,15.60
2023-04-29T21:17:04.226Z,15.50
2023-04-29T21:19:31.102Z,15.50
2023-04-29T21:21:57.939Z,15.50
2023-04-29T21:24:24.843Z,15.50
2023-04-29T21:26:51.609Z,15.40
2023-04-29T21:29:19.854Z,15.40
2023-04-29T21:31:46.761Z,15.30
2023-04-29T21:34:13.752Z,15.30
2023-04-29T21:36:40.612Z,15.20
2023-04-29T21:39:08.862Z,15.10
2023-04-29T21:41:38.486Z,15.10
2023-04-29T21:44:06.603Z,15.00
2023-04-29T21:46:34.418Z,15.00
2023-04-29T21:49:02.955Z,15.00
2023-04-29T21:51:31.632Z,15.00
2023-04-29T21:53:58.440Z,15.00
2023-04-29T21:56:25.753Z,15.00
2023-04-29T21:58:53.535Z,14.90
2023-04-29T22:01:27.050Z,14.90
2023-04-29T22:03:56.576Z,14.80
2023-04-29T22:06:24.614Z,14.80
2023-04-29T22:08:51.601Z,14.80
2023-04-29T22:11:21.455Z,14.80
2023-04-29T22:13:48.724Z,14.70
2023-04-29T22:16:15.645Z,14.70
2023-04-29T22:18:42.584Z,14.60
2023-04-29T22:21:09.438Z,14.60
2023-04-29T22:23:36.450Z,14.60
2023-04-29T22:26:03.428Z,14.60
2023-04-29T22:28:30.544Z,14.60
2023-04-29T22:30:57.440Z,14.50
2023-04-29T22:33:24.327Z,14.50
2023-04-29T22:35:51.223Z,14.40
2023-04-29T22:38:18.072Z,14.40
2023-04-29T22:40:54.196Z,14.40
2023-04-29T22:43:21.141Z,14.40
2023-04-29T22:45:54.889Z,14.40
2023-04-29T22:48:22.828Z,14.30
2023-04-29T22:50:59.174Z,14.30
2023-04-29T22:53:26.071Z,14.20
2023-04-29T22:55:54.310Z,14.20
2023-04-29T22:58:21.853Z,14.10
2023-04-29T23:00:56.933Z,14.00
2023-04-29T23:03:24.511Z,13.90
2023-04-29T23:05:51.505Z,13.80
2023-04-29T23:08:18.377Z,13.80
2023-04-29T23:10:49.526Z,13.70
2023-04-29T23:13:16.969Z,13.60
2023-04-29T23:15:44.425Z,13.60
2023-04-29T23:18:11.421Z,13.50
2023-04-29T23:20:38.374Z,13.50
2023-04-29T23:23:06.005Z,13.50
2023-04-29T23:25:32.895Z,13.50
2023-04-29T23:27:59.737Z,13.50
2023-04-29T23:30:26.781Z,13.50
2023-04-29T23:32:53.592Z,13.50
2023-04-29T23:35:21.234Z,13.50
2023-04-29T23:37:48.159Z,13.50
2023-04-29T23:40:16.025Z,13.40
2023-04-29T23:42:42.827Z,13.40
2023-04-29T23:45:10.094Z,13.40
2023-04-29T23:47:37.092Z,13.40
2023-04-29T23:50:04.505Z,13.30
2023-04-29T23:52:31.484Z,13.30
2023-04-29T23:54:58.379Z,13.20
2023-04-29T23:57:25.303Z,13.10
2023-04-29T23:59:52.963Z,13.10
